This is the latest recevied weather packets stored in our database for station/object WD7OO. If no packets are shown the sender has not sent any weather packets the latest 10 day(s).
| Time | Temp. | Humidity | Pressure | Rain* | Wind** | Luminosity | Snow |
|---|---|---|---|---|---|---|---|
| 1777921122 | 24.44° C | 52% | 1001.9 hPa | 0 mm | - | 163 W/m² | - |
| 1777920819 | 24.44° C | 52% | 1002.1 hPa | 0 mm | - | 254 W/m² | - |
| 1777920515 | 23.89° C | 52% | 1002 hPa | 0 mm | - | 869 W/m² | - |
| 1777920211 | 24.44° C | 52% | 1002 hPa | 0 mm | - | 239 W/m² | - |
| 1777919907 | 23.89° C | 53% | 1002.2 hPa | 0 mm | - | 895 W/m² | - |
| 1777919605 | 24.44° C | 52% | 1002.2 hPa | 0 mm | - | 849 W/m² | - |
| 1777919302 | 23.89° C | 53% | 1002.2 hPa | 0 mm | - | 230 W/m² | - |
| 1777919000 | 24.44° C | 51% | 1002.1 hPa | 0 mm | - | 924 W/m² | - |
| 1777918696 | 25° C | 49% | 1002.2 hPa | 0 mm | - | 912 W/m² | - |
| 1777918394 | 23.89° C | 53% | 1002.3 hPa | 0 mm | - | 911 W/m² | - |
| 1777918093 | 23.89° C | 52% | 1002.3 hPa | 0 mm | - | 846 W/m² | - |
| 1777917791 | 23.89° C | 53% | 1002.3 hPa | 0 mm | - | 207 W/m² | - |
| 1777917488 | 24.44° C | 53% | 1002.4 hPa | 0 mm | - | 702 W/m² | - |
| 1777917185 | 23.89° C | 51% | 1002.4 hPa | 0 mm | - | 792 W/m² | - |
| 1777916884 | 23.89° C | 50% | 1002.6 hPa | 0 mm | - | 737 W/m² | - |
| 1777916581 | 23.89° C | 53% | 1002.5 hPa | 0 mm | - | 760 W/m² | - |
| 1777916277 | 23.89° C | 51% | 1002.7 hPa | 0 mm | - | 722 W/m² | - |
| 1777915974 | 23.89° C | 51% | 1002.6 hPa | 0 mm | - | 675 W/m² | - |
| 1777915670 | 22.78° C | 52% | 1002.6 hPa | 0 mm | - | 700 W/m² | - |
| 1777915367 | 23.33° C | 49% | 1002.9 hPa | 0 mm | - | 729 W/m² | - |
| 1777915063 | 23.33° C | 49% | 1003.1 hPa | 0 mm | - | 711 W/m² | - |
| 1777914761 | 23.33° C | 50% | 1003 hPa | 0 mm | - | 682 W/m² | - |
| 1777914458 | 23.89° C | 47% | 1003.2 hPa | 0 mm | - | 736 W/m² | - |
| 1777914155 | 22.78° C | 48% | 1003.1 hPa | 0 mm | - | 734 W/m² | - |
| 1777913851 | 23.33° C | 46% | 1003.1 hPa | 0 mm | - | 725 W/m² | - |
* Rain latest hour (hover to see other rain measurements)
** Current wind speed in m/s (hover to see current wind gust speed)